createdAt,value
2022-08-10T00:01:52.122Z,16.38
2022-08-10T00:04:24.784Z,16.00
2022-08-10T00:06:54.144Z,16.80
2022-08-10T00:09:23.561Z,17.15
2022-08-10T00:11:51.705Z,17.08
2022-08-10T00:14:19.882Z,16.67
2022-08-10T00:16:47.962Z,16.15
2022-08-10T00:19:16.450Z,16.35
2022-08-10T00:21:46.547Z,15.93
2022-08-10T00:24:14.631Z,14.70
2022-08-10T00:28:00.949Z,11.25
2022-08-10T00:29:31.142Z,13.85
2022-08-10T00:31:59.735Z,13.88
2022-08-10T00:34:29.243Z,13.73
2022-08-10T00:36:58.234Z,13.82
2022-08-10T00:39:27.530Z,15.23
2022-08-10T00:42:06.449Z,13.25
2022-08-10T00:44:41.442Z,18.10
2022-08-10T00:47:35.854Z,15.98
2022-08-10T00:49:58.803Z,16.25
2022-08-10T00:52:27.716Z,15.73
2022-08-10T00:54:56.111Z,17.17
2022-08-10T00:57:25.604Z,17.00
2022-08-10T00:59:58.195Z,17.77
2022-08-10T01:02:31.937Z,16.65
2022-08-10T01:05:06.275Z,18.25
2022-08-10T01:07:53.523Z,15.80
2022-08-10T01:10:36.156Z,18.10
2022-08-10T01:13:25.503Z,17.92
2022-08-10T01:15:55.734Z,16.35
2022-08-10T01:18:53.605Z,14.98
2022-08-10T01:21:21.461Z,14.95
2022-08-10T01:24:04.455Z,13.40
2022-08-10T01:26:54.275Z,14.48
2022-08-10T01:30:01.249Z,14.75
2022-08-10T01:33:01.446Z,12.77
2022-08-10T01:35:32.618Z,17.25
2022-08-10T01:38:13.595Z,15.38
2022-08-10T01:40:54.638Z,14.73
2022-08-10T01:43:25.065Z,16.38
2022-08-10T01:45:57.053Z,16.13
2022-08-10T01:48:32.926Z,18.73
2022-08-10T01:51:13.379Z,18.00
2022-08-10T01:53:47.281Z,15.80
2022-08-10T01:56:17.199Z,18.55
2022-08-10T01:58:49.783Z,16.10
2022-08-10T02:01:21.213Z,18.75
2022-08-10T02:04:04.091Z,13.32
2022-08-10T02:06:40.415Z,18.48
2022-08-10T02:09:11.354Z,14.45
2022-08-10T02:12:06.212Z,15.32
2022-08-10T02:14:34.321Z,12.65
2022-08-10T02:17:07.820Z,13.48
2022-08-10T02:19:39.173Z,12.35
2022-08-10T02:22:36.973Z,14.20
2022-08-10T02:24:59.172Z,14.98
2022-08-10T02:27:28.807Z,15.38
2022-08-10T02:29:58.196Z,12.55
2022-08-10T02:32:37.730Z,11.93
2022-08-10T02:35:18.635Z,10.70
2022-08-10T02:37:55.266Z,15.75
2022-08-10T02:45:13.533Z,13.45
2022-08-10T02:45:20.365Z,11.07
2022-08-10T02:46:39.752Z,14.57
2022-08-10T02:49:13.049Z,11.15
2022-08-10T02:52:07.229Z,12.40
2022-08-10T02:54:43.265Z,9.82
2022-08-10T02:57:22.512Z,13.55
2022-08-10T02:59:53.878Z,12.10
2022-08-10T03:02:46.120Z,14.48
2022-08-10T03:05:15.309Z,10.75
2022-08-10T03:07:58.432Z,11.38
2022-08-10T03:10:29.264Z,11.13
2022-08-10T03:13:00.816Z,13.95
2022-08-10T03:15:34.643Z,10.23
2022-08-10T03:18:03.625Z,15.45
2022-08-10T03:20:39.576Z,11.80
2022-08-10T03:23:15.243Z,17.02
2022-08-10T03:25:54.408Z,9.30
2022-08-10T03:28:24.910Z,10.02
2022-08-10T03:30:53.552Z,12.43
2022-08-10T03:33:24.306Z,11.43
2022-08-10T03:36:39.982Z,16.90
2022-08-10T03:38:40.929Z,11.82
2022-08-10T03:41:16.247Z,13.07
2022-08-10T03:43:48.997Z,15.10
2022-08-10T03:46:21.402Z,11.67
2022-08-10T03:48:54.016Z,14.17
2022-08-10T03:51:24.099Z,12.40
2022-08-10T03:54:03.353Z,11.30
2022-08-10T03:56:37.618Z,14.10
2022-08-10T03:59:10.462Z,10.80
2022-08-10T04:02:46.316Z,11.05
2022-08-10T04:04:26.751Z,14.23
2022-08-10T04:06:57.094Z,14.00
2022-08-10T04:09:53.398Z,13.15
2022-08-10T04:12:21.172Z,13.48
2022-08-10T04:14:52.472Z,14.23
2022-08-10T04:17:56.990Z,13.07
2022-08-10T04:20:34.949Z,14.65
2022-08-10T04:23:09.087Z,12.20
2022-08-10T04:25:39.529Z,20.00
2022-08-10T04:28:08.931Z,11.07
2022-08-10T04:30:38.517Z,13.52
2022-08-10T04:33:09.865Z,18.83
2022-08-10T04:35:39.170Z,11.93
2022-08-10T04:38:08.477Z,13.35
2022-08-10T04:40:36.639Z,13.40
2022-08-10T04:43:12.372Z,14.32
2022-08-10T04:45:49.857Z,10.63
2022-08-10T04:48:42.497Z,15.60
2022-08-10T04:51:19.259Z,11.95
2022-08-10T04:54:04.518Z,12.15
2022-08-10T04:56:37.557Z,11.18
2022-08-10T04:59:10.016Z,10.65
2022-08-10T05:02:21.433Z,12.77
2022-08-10T05:04:36.417Z,8.60
2022-08-10T05:07:08.891Z,10.68
2022-08-10T05:10:02.110Z,8.95
2022-08-10T05:12:27.345Z,11.27
2022-08-10T05:14:55.620Z,8.32
2022-08-10T05:17:24.100Z,9.32
2022-08-10T05:20:03.686Z,15.13
2022-08-10T05:22:37.947Z,8.60
2022-08-10T05:25:18.945Z,10.70
2022-08-10T05:27:47.879Z,6.60
2022-08-10T05:30:19.000Z,8.93
2022-08-10T05:32:56.657Z,8.98
2022-08-10T05:35:52.774Z,11.77
2022-08-10T05:38:20.968Z,6.32
2022-08-10T05:40:50.156Z,7.65
2022-08-10T05:43:20.640Z,10.05
2022-08-10T05:46:19.013Z,6.82
2022-08-10T05:48:55.463Z,8.27
2022-08-10T05:51:27.470Z,9.73
2022-08-10T05:54:02.765Z,8.23
2022-08-10T05:56:57.118Z,5.60
2022-08-10T06:00:33.082Z,7.80
2022-08-10T06:02:35.693Z,7.10
2022-08-10T06:05:10.014Z,9.45
2022-08-10T06:07:54.920Z,6.78
2022-08-10T06:10:32.109Z,6.70
2022-08-10T06:13:30.221Z,6.70
2022-08-10T06:16:07.696Z,7.25
2022-08-10T06:18:37.377Z,6.05
2022-08-10T06:21:06.561Z,8.30
2022-08-10T06:23:36.216Z,8.38
2022-08-10T06:26:09.589Z,8.07
2022-08-10T06:29:01.923Z,6.65
2022-08-10T06:31:47.223Z,8.02
2022-08-10T06:34:30.588Z,8.45
2022-08-10T06:37:01.470Z,6.07
2022-08-10T06:39:34.191Z,7.43
2022-08-10T06:42:15.802Z,7.95
2022-08-10T06:45:39.817Z,6.22
2022-08-10T06:48:22.608Z,6.88
2022-08-10T06:50:57.960Z,6.97
2022-08-10T06:53:53.343Z,5.90
2022-08-10T06:56:36.595Z,6.55
2022-08-10T06:59:21.190Z,7.32
2022-08-10T07:01:57.873Z,9.00
2022-08-10T07:04:34.302Z,7.43
2022-08-10T07:07:07.023Z,6.30
2022-08-10T07:09:40.148Z,7.93
2022-08-10T07:12:09.719Z,6.72
2022-08-10T07:14:40.744Z,7.32
2022-08-10T07:17:15.907Z,7.75
2022-08-10T07:19:52.204Z,6.05
2022-08-10T07:23:55.241Z,5.80
2022-08-10T07:25:25.352Z,4.45
2022-08-10T07:27:59.268Z,8.35
2022-08-10T07:30:32.973Z,7.88
2022-08-10T07:33:02.703Z,8.30
2022-08-10T07:35:41.686Z,6.78
2022-08-10T07:38:30.214Z,6.63
2022-08-10T07:41:02.696Z,6.45
2022-08-10T07:43:36.109Z,5.55
2022-08-10T07:46:09.526Z,8.93
2022-08-10T07:48:44.031Z,14.45
2022-08-10T07:51:17.533Z,7.00
2022-08-10T07:53:56.611Z,5.03
2022-08-10T07:56:47.953Z,6.43
2022-08-10T07:59:18.719Z,8.18
2022-08-10T08:01:53.778Z,7.65
2022-08-10T08:04:24.857Z,5.90
2022-08-10T08:06:53.726Z,5.20
2022-08-10T08:09:24.594Z,4.85
2022-08-10T08:11:54.539Z,5.53
2022-08-10T08:14:23.609Z,5.07
2022-08-10T08:16:57.300Z,5.70
2022-08-10T08:19:29.812Z,3.75
2022-08-10T08:24:07.522Z,8.45
2022-08-10T08:24:58.837Z,5.55
2022-08-10T08:27:28.563Z,4.43
2022-08-10T08:29:56.769Z,5.70
2022-08-10T08:32:28.251Z,4.88
2022-08-10T08:38:33.168Z,4.28
2022-08-10T08:40:30.015Z,4.75
2022-08-10T08:43:18.104Z,4.70
2022-08-10T08:46:01.846Z,6.63
2022-08-10T08:48:43.288Z,6.00
2022-08-10T08:52:09.494Z,4.07
2022-08-10T08:54:36.504Z,5.67
2022-08-10T08:57:49.816Z,9.07
2022-08-10T09:00:45.282Z,4.78
2022-08-10T09:03:31.558Z,5.53
2022-08-10T09:06:19.617Z,7.13
2022-08-10T09:09:06.171Z,5.50
2022-08-10T09:12:11.621Z,5.75
2022-08-10T09:15:04.133Z,5.35
2022-08-10T09:17:59.873Z,4.70
2022-08-10T09:20:45.304Z,4.82
2022-08-10T09:24:05.508Z,6.65
2022-08-10T09:26:31.556Z,4.68
2022-08-10T09:29:13.174Z,5.55
2022-08-10T09:31:55.792Z,5.25
2022-08-10T09:36:20.386Z,4.97
2022-08-10T09:38:02.105Z,6.13
2022-08-10T09:41:04.052Z,5.75
2022-08-10T09:43:49.454Z,4.20
2022-08-10T09:46:27.707Z,6.38
2022-08-10T09:49:52.974Z,5.13
2022-08-10T09:52:32.534Z,5.72
2022-08-10T09:56:17.694Z,5.90
2022-08-10T09:58:26.355Z,5.60
2022-08-10T10:01:08.862Z,6.15
2022-08-10T10:04:10.125Z,5.00
2022-08-10T10:06:44.580Z,9.38
2022-08-10T10:09:20.027Z,5.75
2022-08-10T10:12:16.231Z,5.45
2022-08-10T10:15:24.701Z,6.15
2022-08-10T10:18:41.739Z,7.35
2022-08-10T10:21:23.927Z,5.10
2022-08-10T10:24:45.019Z,5.95
2022-08-10T10:27:21.716Z,5.22
2022-08-10T10:30:10.851Z,7.72
2022-08-10T10:32:38.641Z,8.18
2022-08-10T10:35:21.059Z,6.10
2022-08-10T10:38:01.356Z,6.85
2022-08-10T10:40:41.219Z,5.85
2022-08-10T10:43:22.594Z,6.90
2022-08-10T10:46:12.948Z,6.20
2022-08-10T10:49:06.575Z,7.13
2022-08-10T10:51:42.921Z,6.78
2022-08-10T10:54:19.478Z,7.18
2022-08-10T10:57:06.422Z,5.68
2022-08-10T10:59:54.959Z,7.15
2022-08-10T11:02:53.963Z,5.43
2022-08-10T11:05:47.291Z,4.95
2022-08-10T11:08:29.016Z,5.57
2022-08-10T11:11:10.903Z,6.25
2022-08-10T11:14:27.365Z,8.07
2022-08-10T11:17:17.505Z,5.22
2022-08-10T11:20:12.082Z,6.10
2022-08-10T11:23:02.666Z,5.55
2022-08-10T11:25:33.076Z,5.20
2022-08-10T11:28:07.209Z,5.85
2022-08-10T11:30:44.294Z,6.13
2022-08-10T11:33:30.818Z,5.80
2022-08-10T11:36:09.113Z,7.25
2022-08-10T11:39:13.937Z,5.95
2022-08-10T11:42:07.779Z,4.97
2022-08-10T11:44:48.577Z,5.15
2022-08-10T11:47:23.486Z,6.43
2022-08-10T11:50:28.487Z,8.15
2022-08-10T11:53:16.164Z,8.48
2022-08-10T11:55:52.785Z,5.13
2022-08-10T11:58:42.201Z,6.70
2022-08-10T12:01:13.482Z,5.95
2022-08-10T12:03:44.604Z,4.90
2022-08-10T12:06:28.785Z,7.47
2022-08-10T12:10:10.357Z,5.93
2022-08-10T12:11:56.927Z,5.18
2022-08-10T12:14:35.345Z,5.28
2022-08-10T12:17:13.252Z,5.63
2022-08-10T12:20:02.310Z,5.60
2022-08-10T12:22:38.751Z,6.00
2022-08-10T12:25:54.761Z,5.50
2022-08-10T12:28:16.446Z,5.40
2022-08-10T12:33:25.160Z,5.78
2022-08-10T12:36:20.338Z,7.60
2022-08-10T12:39:12.466Z,6.38
2022-08-10T12:41:59.901Z,7.78
2022-08-10T12:44:42.976Z,5.72
2022-08-10T12:47:35.811Z,5.72
2022-08-10T12:50:31.906Z,6.25
2022-08-10T12:53:06.700Z,6.45
2022-08-10T12:55:38.292Z,5.25
2022-08-10T12:58:58.934Z,6.63
2022-08-10T13:01:21.382Z,6.22
2022-08-10T13:04:23.027Z,9.75
2022-08-10T13:06:49.934Z,6.35
2022-08-10T13:09:25.290Z,5.38
2022-08-10T13:12:38.186Z,5.97
2022-08-10T13:15:45.802Z,7.18
2022-08-10T13:18:01.680Z,6.28
2022-08-10T13:20:35.821Z,7.35
2022-08-10T13:23:14.717Z,6.43
2022-08-10T13:25:50.948Z,6.72
2022-08-10T13:28:36.391Z,7.13
2022-08-10T13:31:11.666Z,8.52
2022-08-10T13:34:39.955Z,7.72
2022-08-10T13:36:40.415Z,9.48
2022-08-10T13:39:09.536Z,6.35
2022-08-10T13:41:43.694Z,6.07
2022-08-10T13:44:14.956Z,6.90
2022-08-10T13:46:49.956Z,9.88
2022-08-10T13:49:20.498Z,7.85
2022-08-10T13:51:56.815Z,7.65
2022-08-10T13:54:36.141Z,7.85
2022-08-10T13:57:06.025Z,7.93
2022-08-10T14:00:33.886Z,7.82
2022-08-10T14:02:38.887Z,8.23
2022-08-10T14:05:08.783Z,6.82
2022-08-10T14:08:00.106Z,7.05
2022-08-10T14:11:08.763Z,7.05
2022-08-10T14:13:25.808Z,5.45
2022-08-10T14:15:56.481Z,6.47
2022-08-10T14:18:25.675Z,8.32
2022-08-10T14:20:57.242Z,6.90
2022-08-10T14:23:25.157Z,7.05
2022-08-10T14:25:59.563Z,7.47
2022-08-10T14:28:43.555Z,6.78
2022-08-10T14:31:16.600Z,5.53
2022-08-10T14:33:53.355Z,6.13
2022-08-10T14:36:33.380Z,5.18
2022-08-10T14:39:03.731Z,5.88
2022-08-10T14:42:01.450Z,4.68
2022-08-10T14:44:24.912Z,5.43
2022-08-10T14:46:58.013Z,5.18
2022-08-10T14:49:28.200Z,5.10
2022-08-10T14:52:02.534Z,6.68
2022-08-10T14:54:32.450Z,5.22
2022-08-10T14:57:11.207Z,4.97
2022-08-10T15:00:25.050Z,6.65
2022-08-10T15:02:56.111Z,4.63
2022-08-10T15:05:39.994Z,5.40
2022-08-10T15:08:13.353Z,4.90
2022-08-10T15:10:44.881Z,4.82
2022-08-10T15:13:34.227Z,5.18
2022-08-10T15:16:13.871Z,6.70
2022-08-10T15:18:58.251Z,5.15
2022-08-10T15:21:42.223Z,4.80
2022-08-10T15:24:36.853Z,6.63
2022-08-10T15:27:08.970Z,5.97
2022-08-10T15:29:57.415Z,5.28
2022-08-10T15:32:55.561Z,6.75
2022-08-10T15:35:46.130Z,6.85
2022-08-10T15:38:27.748Z,7.10
2022-08-10T15:41:11.236Z,6.63
2022-08-10T15:43:44.368Z,5.95
2022-08-10T15:46:15.971Z,5.78
2022-08-10T15:48:48.163Z,6.53
2022-08-10T15:51:36.435Z,6.22
2022-08-10T15:54:33.516Z,8.85
2022-08-10T15:57:12.730Z,5.82
2022-08-10T15:59:44.663Z,8.48
2022-08-10T16:02:17.662Z,6.63
2022-08-10T16:05:11.308Z,7.35
2022-08-10T16:07:49.178Z,7.90
2022-08-10T16:10:28.206Z,6.10
2022-08-10T16:13:50.858Z,6.32
2022-08-10T16:15:56.666Z,8.13
2022-08-10T16:18:29.257Z,7.10
2022-08-10T16:21:00.602Z,7.95
2022-08-10T16:23:35.469Z,6.80
2022-08-10T16:26:14.829Z,7.72
2022-08-10T16:28:50.350Z,10.20
2022-08-10T16:31:24.376Z,7.47
2022-08-10T16:33:56.788Z,7.93
2022-08-10T16:36:58.488Z,6.78
2022-08-10T16:39:58.443Z,7.63
2022-08-10T16:42:29.420Z,7.93
2022-08-10T16:45:11.903Z,9.38
2022-08-10T16:47:48.136Z,19.67
2022-08-10T16:50:21.187Z,14.95
2022-08-10T16:52:52.377Z,12.68
2022-08-10T16:55:48.791Z,12.73
2022-08-10T16:58:14.383Z,17.65
2022-08-10T17:00:45.670Z,8.05
2022-08-10T17:03:22.303Z,10.75
2022-08-10T17:06:10.770Z,7.68
2022-08-10T17:12:53.387Z,13.15
2022-08-10T17:15:27.353Z,11.52
2022-08-10T17:17:59.131Z,8.68
2022-08-10T17:23:43.722Z,8.25
2022-08-10T17:26:16.675Z,8.35
2022-08-10T17:28:55.897Z,11.48
2022-08-10T17:31:53.460Z,9.15
2022-08-10T17:34:20.874Z,9.57
2022-08-10T17:36:56.554Z,10.70
2022-08-10T17:39:41.367Z,9.88
2022-08-10T17:42:10.841Z,10.27
2022-08-10T17:44:41.146Z,10.30
2022-08-10T17:47:10.917Z,7.43
2022-08-10T17:49:42.374Z,9.52
2022-08-10T17:52:13.951Z,7.10
2022-08-10T17:54:46.826Z,7.85
2022-08-10T17:59:48.260Z,7.40
2022-08-10T18:02:20.013Z,8.32
2022-08-10T18:04:51.580Z,9.35
2022-08-10T18:07:29.356Z,9.40
2022-08-10T18:09:58.844Z,8.95
2022-08-10T18:12:45.226Z,9.88
2022-08-10T18:15:16.919Z,7.40
2022-08-10T18:17:55.472Z,9.73
2022-08-10T18:20:35.677Z,8.02
2022-08-10T18:23:05.151Z,10.48
2022-08-10T18:25:38.661Z,9.95
2022-08-10T18:28:10.917Z,8.45
2022-08-10T18:30:50.318Z,9.65
2022-08-10T18:33:23.723Z,8.45
2022-08-10T18:35:53.136Z,9.27
2022-08-10T18:38:22.178Z,8.52
2022-08-10T18:40:58.002Z,10.35
2022-08-10T18:44:06.369Z,9.20
2022-08-10T18:46:32.699Z,11.40
2022-08-10T18:49:13.229Z,11.65
2022-08-10T18:51:46.196Z,8.52
2022-08-10T18:54:39.271Z,10.35
2022-08-10T18:57:37.217Z,10.30
2022-08-10T19:00:21.055Z,12.35
2022-08-10T19:03:07.257Z,11.00
2022-08-10T19:06:13.318Z,10.85
2022-08-10T19:09:02.938Z,10.40
2022-08-10T19:11:51.502Z,12.07
2022-08-10T19:14:41.099Z,11.35
2022-08-10T19:17:27.061Z,9.15
2022-08-10T19:20:14.855Z,11.52
2022-08-10T19:22:51.751Z,12.18
2022-08-10T19:26:41.464Z,12.15
2022-08-10T19:28:47.339Z,10.77
2022-08-10T19:31:24.681Z,10.13
2022-08-10T19:34:36.666Z,8.65
2022-08-10T19:37:32.665Z,12.35
2022-08-10T19:40:43.238Z,12.57
2022-08-10T19:44:00.312Z,12.13
2022-08-10T19:46:49.504Z,9.32
2022-08-10T19:49:44.405Z,9.38
2022-08-10T19:52:32.129Z,10.80
2022-08-10T19:55:08.227Z,11.90
2022-08-10T20:00:27.010Z,9.35
2022-08-10T20:03:18.844Z,8.05
2022-08-10T20:06:18.054Z,9.30
2022-08-10T20:09:06.915Z,8.85
2022-08-10T20:11:58.388Z,9.95
2022-08-10T20:14:55.622Z,9.35
2022-08-10T20:17:51.153Z,11.10
2022-08-10T20:20:32.793Z,11.38
2022-08-10T20:23:21.013Z,9.13
2022-08-10T20:25:57.004Z,8.20
2022-08-10T20:28:49.682Z,9.55
2022-08-10T20:31:23.543Z,8.60
2022-08-10T20:34:07.097Z,11.23
2022-08-10T20:36:45.621Z,11.23
2022-08-10T20:39:19.159Z,13.70
2022-08-10T20:42:17.787Z,9.93
2022-08-10T20:45:07.539Z,10.80
2022-08-10T20:48:13.661Z,10.73
2022-08-10T20:50:50.012Z,12.27
2022-08-10T20:53:31.809Z,9.98
2022-08-10T20:56:21.238Z,15.75
2022-08-10T20:59:16.760Z,14.85
2022-08-10T21:02:20.831Z,10.57
2022-08-10T21:05:29.805Z,12.23
2022-08-10T21:08:13.377Z,11.70
2022-08-10T21:10:48.751Z,11.05
2022-08-10T21:13:35.334Z,11.82
2022-08-10T21:16:32.818Z,10.50
2022-08-10T21:19:27.037Z,12.48
2022-08-10T21:22:17.491Z,10.05
2022-08-10T21:24:58.470Z,10.20
2022-08-10T21:27:49.489Z,10.70
2022-08-10T21:30:53.328Z,12.30
2022-08-10T21:33:35.751Z,12.40
2022-08-10T21:36:22.833Z,10.85
2022-08-10T21:39:10.574Z,10.48
2022-08-10T21:41:58.790Z,11.45
2022-08-10T21:45:13.468Z,18.70
2022-08-10T21:48:40.246Z,10.65
2022-08-10T21:52:01.679Z,10.68
2022-08-10T21:55:02.986Z,12.35
2022-08-10T21:58:27.414Z,10.93
2022-08-10T22:01:20.855Z,9.57
2022-08-10T22:05:20.635Z,10.93
2022-08-10T22:08:15.039Z,10.60
2022-08-10T22:11:10.317Z,11.40
2022-08-10T22:14:06.056Z,15.75
2022-08-10T22:18:10.594Z,12.38
2022-08-10T22:20:49.522Z,11.20
2022-08-10T22:24:16.863Z,8.18
2022-08-10T22:27:46.342Z,11.02
2022-08-10T22:30:35.989Z,9.88
2022-08-10T22:33:37.745Z,11.02
2022-08-10T22:36:36.194Z,9.30
2022-08-10T22:40:10.075Z,8.93
2022-08-10T22:43:10.472Z,13.18
2022-08-10T22:46:07.773Z,12.77
2022-08-10T22:49:00.838Z,11.48
2022-08-10T22:51:53.449Z,12.65
2022-08-10T22:54:56.764Z,10.60
2022-08-10T22:57:43.284Z,10.57
2022-08-10T23:00:20.215Z,10.88
2022-08-10T23:03:12.597Z,11.45
2022-08-10T23:05:57.582Z,14.88
2022-08-10T23:08:35.306Z,10.40
2022-08-10T23:11:08.712Z,12.32
2022-08-10T23:13:41.988Z,11.55
2022-08-10T23:16:40.806Z,14.43
2022-08-10T23:19:41.760Z,16.95
2022-08-10T23:22:12.698Z,14.07
2022-08-10T23:24:46.751Z,14.57
2022-08-10T23:27:37.832Z,12.75
2022-08-10T23:30:10.326Z,10.80
2022-08-10T23:32:43.788Z,14.98
2022-08-10T23:36:29.622Z,12.13
2022-08-10T23:38:20.365Z,11.27
2022-08-10T23:40:51.486Z,16.02
2022-08-10T23:43:40.771Z,11.00
2022-08-10T23:46:15.952Z,12.32
2022-08-10T23:48:46.823Z,13.57
2022-08-10T23:51:17.445Z,13.43
2022-08-10T23:53:48.399Z,13.07
2022-08-10T23:56:19.729Z,15.73
2022-08-10T23:58:50.697Z,11.00
